createdAt,value
2024-01-20T00:04:43.215Z,3.90
2024-01-20T00:10:23.569Z,3.90
2024-01-20T00:16:04.267Z,3.90
2024-01-20T00:21:45.766Z,3.90
2024-01-20T00:27:26.048Z,3.90
2024-01-20T00:33:07.463Z,3.90
2024-01-20T00:38:49.474Z,3.80
2024-01-20T00:44:29.550Z,3.70
2024-01-20T00:50:10.443Z,3.60
2024-01-20T00:55:51.988Z,3.60
2024-01-20T01:01:31.856Z,3.60
2024-01-20T01:07:12.483Z,3.60
2024-01-20T01:12:54.462Z,3.60
2024-01-20T01:18:34.666Z,3.60
2024-01-20T01:24:15.163Z,3.70
2024-01-20T01:29:56.675Z,3.70
2024-01-20T01:35:36.846Z,3.70
2024-01-20T01:41:17.165Z,3.80
2024-01-20T01:46:58.784Z,3.80
2024-01-20T01:52:39.648Z,3.80
2024-01-20T01:58:19.884Z,3.80
2024-01-20T02:04:01.482Z,3.90
2024-01-20T02:09:42.637Z,3.90
2024-01-20T02:15:23.879Z,3.90
2024-01-20T02:21:07.759Z,3.90
2024-01-20T02:26:49.443Z,3.80
2024-01-20T02:32:29.985Z,3.80
2024-01-20T02:38:09.962Z,3.70
2024-01-20T02:43:51.647Z,3.60
2024-01-20T02:49:32.331Z,3.50
2024-01-20T02:55:12.700Z,3.40
2024-01-20T03:00:54.585Z,3.40
2024-01-20T03:06:34.714Z,3.30
2024-01-20T03:12:14.963Z,3.30
2024-01-20T03:17:56.878Z,3.20
2024-01-20T03:23:37.293Z,3.20
2024-01-20T03:29:18.054Z,3.20
2024-01-20T03:34:59.993Z,3.20
2024-01-20T03:40:39.893Z,3.20
2024-01-20T03:46:20.106Z,3.20
2024-01-20T03:52:01.830Z,3.20
2024-01-20T03:57:41.835Z,3.20
2024-01-20T04:03:22.001Z,3.20
2024-01-20T04:09:03.633Z,3.20
2024-01-20T04:14:43.491Z,3.10
2024-01-20T04:20:23.735Z,3.10
2024-01-20T04:26:05.979Z,3.10
2024-01-20T04:31:46.256Z,3.10
2024-01-20T04:37:26.434Z,3.00
2024-01-20T04:43:08.099Z,3.00
2024-01-20T04:48:48.190Z,3.00
2024-01-20T04:54:28.691Z,2.90
2024-01-20T05:00:11.531Z,2.90
2024-01-20T05:05:51.778Z,2.90
2024-01-20T05:11:31.945Z,2.90
2024-01-20T05:17:13.418Z,2.90
2024-01-20T05:22:53.532Z,2.90
2024-01-20T05:28:33.985Z,2.80
2024-01-20T05:34:16.085Z,2.80
2024-01-20T05:39:56.799Z,2.80
2024-01-20T05:45:36.925Z,2.80
2024-01-20T05:51:18.541Z,2.80
2024-01-20T05:56:59.008Z,2.80
2024-01-20T06:02:39.356Z,2.80
2024-01-20T06:08:21.164Z,2.80
2024-01-20T06:14:01.048Z,2.80
2024-01-20T06:19:41.439Z,2.80
2024-01-20T06:25:23.129Z,2.80
2024-01-20T06:31:03.613Z,2.80
2024-01-20T06:36:43.947Z,2.80
2024-01-20T06:42:25.622Z,2.80
2024-01-20T06:48:06.623Z,2.70
2024-01-20T06:53:46.938Z,2.70
2024-01-20T06:59:28.645Z,2.70
2024-01-20T07:05:09.386Z,2.60
2024-01-20T07:10:49.164Z,2.60
2024-01-20T07:16:30.956Z,2.60
2024-01-20T07:22:10.996Z,2.60
2024-01-20T07:27:51.514Z,2.60
2024-01-20T07:33:33.607Z,2.60
2024-01-20T07:39:13.944Z,2.60
2024-01-20T07:44:54.144Z,2.60
2024-01-20T07:50:35.692Z,2.50
2024-01-20T07:56:15.642Z,2.60
2024-01-20T08:01:56.044Z,2.70
2024-01-20T08:07:38.125Z,2.80
2024-01-20T08:13:17.959Z,3.00
2024-01-20T08:18:58.410Z,3.20
2024-01-20T08:24:40.038Z,3.50
2024-01-20T08:30:20.222Z,3.90
2024-01-20T08:36:00.332Z,4.30
2024-01-20T08:41:41.987Z,4.80
2024-01-20T08:47:21.740Z,5.30
2024-01-20T08:53:02.275Z,5.60
2024-01-20T08:58:43.945Z,6.00
2024-01-20T09:04:23.982Z,6.30
2024-01-20T09:10:04.717Z,6.60
2024-01-20T09:15:46.541Z,6.80
2024-01-20T09:21:26.940Z,7.00
2024-01-20T09:27:07.451Z,6.90
2024-01-20T09:32:49.206Z,6.80
2024-01-20T09:38:29.769Z,6.80
2024-01-20T09:44:10.629Z,6.60
2024-01-20T09:49:52.352Z,6.40
2024-01-20T09:55:32.161Z,6.10
2024-01-20T10:01:13.014Z,5.90
2024-01-20T10:06:54.921Z,5.90
2024-01-20T10:12:35.213Z,5.80
2024-01-20T10:18:15.367Z,5.70
2024-01-20T10:23:57.108Z,5.60
2024-01-20T10:29:37.489Z,5.50
2024-01-20T10:35:18.763Z,5.50
2024-01-20T10:41:02.070Z,5.50
2024-01-20T10:46:46.999Z,5.50
2024-01-20T10:52:27.402Z,5.50
2024-01-20T10:58:11.456Z,5.50
2024-01-20T11:03:52.319Z,5.50
2024-01-20T11:09:32.821Z,5.40
2024-01-20T11:15:18.460Z,5.50
2024-01-20T11:20:59.657Z,5.50
2024-01-20T11:26:39.908Z,5.60
2024-01-20T11:32:22.905Z,5.60
2024-01-20T11:38:04.466Z,5.60
2024-01-20T11:43:45.946Z,5.70
2024-01-20T11:49:27.466Z,5.70
2024-01-20T11:55:08.822Z,5.80
2024-01-20T12:00:51.450Z,5.80
2024-01-20T12:06:36.467Z,5.90
2024-01-20T12:12:18.264Z,6.00
2024-01-20T12:17:58.472Z,6.20
2024-01-20T12:23:41.713Z,6.50
2024-01-20T12:29:22.186Z,6.60
2024-01-20T12:35:03.026Z,6.70
2024-01-20T12:40:44.411Z,6.60
2024-01-20T12:46:24.223Z,6.50
2024-01-20T12:52:05.525Z,6.40
2024-01-20T12:57:47.359Z,6.30
2024-01-20T13:03:28.056Z,6.20
2024-01-20T13:09:08.553Z,6.20
2024-01-20T13:14:50.068Z,6.10
2024-01-20T13:20:30.496Z,6.00
2024-01-20T13:26:10.981Z,5.90
2024-01-20T13:31:53.062Z,5.90
2024-01-20T13:37:33.114Z,5.90
2024-01-20T13:43:13.431Z,5.80
2024-01-20T13:48:55.187Z,5.80
2024-01-20T13:54:35.795Z,5.80
2024-01-20T14:00:16.604Z,5.80
2024-01-20T14:05:58.335Z,5.70
2024-01-20T14:11:38.893Z,5.70
2024-01-20T14:17:19.440Z,5.70
2024-01-20T14:23:01.251Z,5.70
2024-01-20T14:28:41.606Z,5.70
2024-01-20T14:34:22.483Z,5.70
2024-01-20T14:40:05.433Z,5.60
2024-01-20T14:45:45.588Z,5.60
2024-01-20T14:51:26.042Z,5.50
2024-01-20T14:57:07.794Z,5.50
2024-01-20T15:02:47.959Z,5.40
2024-01-20T15:08:28.345Z,5.40
2024-01-20T15:14:10.292Z,5.40
2024-01-20T15:19:50.330Z,5.30
2024-01-20T15:25:30.342Z,5.30
2024-01-20T15:31:12.189Z,5.20
2024-01-20T15:36:52.660Z,5.10
2024-01-20T15:42:33.323Z,5.10
2024-01-20T15:48:15.181Z,4.90
2024-01-20T15:53:55.540Z,4.80
2024-01-20T15:59:35.978Z,4.70
2024-01-20T16:05:17.799Z,4.60
2024-01-20T16:10:58.390Z,4.50
2024-01-20T16:16:38.593Z,4.40
2024-01-20T16:22:20.470Z,4.30
2024-01-20T16:28:00.542Z,4.10
2024-01-20T16:33:41.158Z,4.10
2024-01-20T16:39:23.150Z,4.00
2024-01-20T16:45:03.690Z,3.90
2024-01-20T16:50:44.082Z,3.80
2024-01-20T16:56:25.600Z,3.80
2024-01-20T17:02:07.587Z,3.70
2024-01-20T17:07:48.970Z,3.70
2024-01-20T17:13:30.853Z,3.70
2024-01-20T17:19:11.507Z,3.70
2024-01-20T17:24:51.872Z,3.60
2024-01-20T17:30:33.722Z,3.70
2024-01-20T17:36:14.042Z,3.60
2024-01-20T17:41:54.402Z,3.70
2024-01-20T17:47:36.601Z,3.60
2024-01-20T17:53:16.906Z,3.60
2024-01-20T17:58:57.138Z,3.60
2024-01-20T18:04:38.800Z,3.60
2024-01-20T18:10:19.816Z,3.50
2024-01-20T18:16:00.158Z,3.50
2024-01-20T18:21:45.535Z,3.50
2024-01-20T18:27:25.625Z,3.50
2024-01-20T18:33:06.377Z,3.50
2024-01-20T18:38:48.575Z,3.50
2024-01-20T18:44:29.525Z,3.50
2024-01-20T18:50:10.290Z,3.40
2024-01-20T18:55:51.817Z,3.40
2024-01-20T19:01:31.919Z,3.40
2024-01-20T19:07:12.165Z,3.30
2024-01-20T19:12:53.830Z,3.30
2024-01-20T19:18:34.005Z,3.30
2024-01-20T19:24:14.267Z,3.30
2024-01-20T19:29:56.346Z,3.30
2024-01-20T19:35:36.547Z,3.30
2024-01-20T19:41:16.713Z,3.30
2024-01-20T19:46:58.307Z,3.30
2024-01-20T19:52:38.537Z,3.30
2024-01-20T19:58:18.571Z,3.30
2024-01-20T20:04:00.571Z,3.30
2024-01-20T20:09:41.384Z,3.30
2024-01-20T20:15:21.213Z,3.30
2024-01-20T20:21:02.854Z,3.30
2024-01-20T20:26:44.218Z,3.30
2024-01-20T20:32:24.928Z,3.30
2024-01-20T20:38:06.845Z,3.30
2024-01-20T20:43:46.850Z,3.30
2024-01-20T20:49:27.191Z,3.30
2024-01-20T20:55:10.266Z,3.20
2024-01-20T21:00:50.843Z,3.20
2024-01-20T21:06:31.022Z,3.10
2024-01-20T21:12:12.637Z,3.00
2024-01-20T21:17:52.702Z,3.00
2024-01-20T21:23:34.288Z,3.00
2024-01-20T21:29:15.694Z,3.00
2024-01-20T21:34:56.255Z,2.90
2024-01-20T21:40:37.206Z,2.90
2024-01-20T21:46:23.057Z,3.00
2024-01-20T21:52:03.821Z,3.00
2024-01-20T21:57:43.768Z,3.00
2024-01-20T22:03:25.391Z,3.00
2024-01-20T22:09:05.725Z,3.00
2024-01-20T22:14:46.182Z,3.00
2024-01-20T22:20:27.992Z,2.90
2024-01-20T22:26:07.954Z,2.90
2024-01-20T22:31:48.062Z,2.90
2024-01-20T22:37:31.532Z,3.00
2024-01-20T22:43:11.708Z,3.00
2024-01-20T22:48:52.195Z,3.00
2024-01-20T22:54:33.925Z,3.00
2024-01-20T23:00:14.652Z,3.00
2024-01-20T23:05:54.473Z,3.00
2024-01-20T23:11:36.069Z,3.10
2024-01-20T23:17:16.323Z,3.10
2024-01-20T23:22:56.243Z,3.20
2024-01-20T23:28:37.907Z,3.30
2024-01-20T23:34:18.032Z,3.20
2024-01-20T23:39:58.379Z,3.30
2024-01-20T23:45:40.379Z,3.30
2024-01-20T23:51:20.430Z,3.30
2024-01-20T23:57:00.543Z,3.20
